Time;durP1;ratioP1;P1;durP2;ratioP2;P2;SDS_P1;SDS_P2;PMS_P1;PMS_P2;Temp;Humidity;BMP_temperature;BMP_pressure;BME280_temperature;BME280_humidity;BME280_pressure;Samples;Min_cycle;Max_cycle;Signal;HPM_P1;HPM_P2
2024/04/06 00:00:42;;;;;;;0.70;0.70;;;;;;;;;;5074024;28;20197;-52
2024/04/06 00:03:09;;;;;;;1.48;1.33;;;;;;;;;;5070235;28;20204;-50
2024/04/06 00:05:37;;;;;;;1.15;1.15;;;;;;;;;;5070233;28;20212;-53
2024/04/06 00:08:05;;;;;;;0.68;0.68;;;;;;;;;;5073765;28;20208;-50
2024/04/06 00:10:32;;;;;;;0.63;0.63;;;;;;;;;;5069796;28;20221;-53
2024/04/06 00:12:59;;;;;;;0.50;0.50;;;;;;;;;;5070185;28;20195;-51
2024/04/06 00:15:26;;;;;;;0.73;0.73;;;;;;;;;;5066570;28;20201;-54
2024/04/06 00:17:53;;;;;;;0.90;0.90;;;;;;;;;;5069225;28;20193;-51
2024/04/06 00:20:19;;;;;;;0.60;0.60;;;;;;;;;;5070256;28;20570;-51
2024/04/06 00:22:48;;;;;;;0.60;0.60;;;;;;;;;;5069598;28;20718;-51
2024/04/06 00:25:15;;;;;;;0.77;0.77;;;;;;;;;;5068915;28;20205;-53
2024/04/06 00:27:42;;;;;;;0.63;0.63;;;;;;;;;;5069727;28;20585;-52
2024/04/06 00:30:09;;;;;;;1.38;0.77;;;;;;;;;;5073347;28;20225;-52
2024/04/06 00:32:37;;;;;;;1.23;1.00;;;;;;;;;;5062019;28;20218;-50
2024/04/06 00:35:04;;;;;;;0.68;0.68;;;;;;;;;;5064094;28;20229;-51
2024/04/06 00:37:32;;;;;;;0.82;0.82;;;;;;;;;;5062332;28;20205;-49
2024/04/06 00:40:00;;;;;;;0.70;0.70;;;;;;;;;;5073606;28;20201;-49
2024/04/06 00:42:27;;;;;;;0.68;0.68;;;;;;;;;;5073436;28;20225;-51
2024/04/06 00:44:54;;;;;;;0.50;0.50;;;;;;;;;;5073778;28;20201;-48
2024/04/06 00:47:21;;;;;;;0.70;0.70;;;;;;;;;;5058376;28;20214;-49
2024/04/06 00:49:48;;;;;;;0.60;0.52;;;;;;;;;;5053555;28;20229;-48
2024/04/06 00:52:15;;;;;;;0.70;0.68;;;;;;;;;;5057195;28;20221;-49
2024/04/06 00:54:42;;;;;;;0.65;0.65;;;;;;;;;;5063300;28;20198;-50
2024/04/06 00:57:11;;;;;;;0.75;0.75;;;;;;;;;;5073095;28;20598;-50
2024/04/06 00:59:38;;;;;;;1.23;1.13;;;;;;;;;;5073497;28;20683;-50
2024/04/06 01:02:06;;;;;;;2.50;1.35;;;;;;;;;;5073305;28;20308;-51
2024/04/06 01:04:33;;;;;;;1.08;1.08;;;;;;;;;;5073724;28;20208;-50
2024/04/06 01:07:00;;;;;;;0.77;0.77;;;;;;;;;;5072935;28;20204;-49
2024/04/06 01:09:27;;;;;;;0.93;0.93;;;;;;;;;;5072862;28;20197;-49
2024/04/06 01:11:54;;;;;;;0.80;0.80;;;;;;;;;;5072618;28;20213;-51
2024/04/06 01:14:22;;;;;;;0.73;0.73;;;;;;;;;;5073366;28;20205;-54
2024/04/06 01:16:49;;;;;;;0.98;0.93;;;;;;;;;;5073102;28;20661;-50
2024/04/06 01:19:16;;;;;;;0.95;0.70;;;;;;;;;;5073045;28;20201;-55
2024/04/06 01:21:43;;;;;;;1.27;0.77;;;;;;;;;;5068782;28;20217;-54
2024/04/06 01:24:25;;;;;;;0.60;0.60;;;;;;;;;;5071079;28;20205;-53
2024/04/06 01:26:52;;;;;;;0.70;0.70;;;;;;;;;;5064127;28;20644;-54
2024/04/06 01:29:19;;;;;;;0.80;0.80;;;;;;;;;;5072502;28;20193;-57
2024/04/06 01:31:46;;;;;;;0.85;0.85;;;;;;;;;;5072058;28;20650;-55
2024/04/06 01:34:13;;;;;;;0.50;0.50;;;;;;;;;;5072029;28;20200;-57
2024/04/06 01:36:41;;;;;;;1.08;0.93;;;;;;;;;;5072111;28;20198;-56
2024/04/06 01:39:07;;;;;;;0.50;0.50;;;;;;;;;;5072547;28;20675;-56
2024/04/06 01:41:37;;;;;;;0.60;0.60;;;;;;;;;;5068088;28;20213;-55
2024/04/06 01:44:03;;;;;;;0.77;0.70;;;;;;;;;;5068251;28;20197;-56
2024/04/06 01:46:31;;;;;;;0.45;0.45;;;;;;;;;;5071631;28;20208;-52
2024/04/06 01:48:58;;;;;;;0.73;0.73;;;;;;;;;;5067844;28;20579;-53
2024/04/06 01:51:25;;;;;;;0.70;0.70;;;;;;;;;;5068117;28;20251;-56
2024/04/06 01:53:52;;;;;;;0.60;0.60;;;;;;;;;;5068511;28;20224;-56
2024/04/06 01:56:19;;;;;;;0.75;0.75;;;;;;;;;;5070670;28;20197;-56
2024/04/06 01:58:47;;;;;;;1.00;0.80;;;;;;;;;;5071915;28;20208;-56
2024/04/06 02:01:15;;;;;;;0.57;0.57;;;;;;;;;;5063332;28;20662;-55
2024/04/06 02:03:42;;;;;;;0.70;0.70;;;;;;;;;;5072060;28;20200;-56
2024/04/06 02:06:10;;;;;;;0.80;0.80;;;;;;;;;;5068109;28;20205;-51
2024/04/06 02:08:36;;;;;;;0.68;0.68;;;;;;;;;;5063792;28;20204;-56
2024/04/06 02:11:04;;;;;;;0.45;0.43;;;;;;;;;;5071198;28;20229;-54
2024/04/06 02:13:32;;;;;;;0.88;0.88;;;;;;;;;;5068846;28;20189;-56
2024/04/06 02:16:01;;;;;;;0.55;0.55;;;;;;;;;;5071724;28;20238;-54
2024/04/06 02:18:28;;;;;;;0.80;0.80;;;;;;;;;;5068181;28;20590;-51
2024/04/06 02:20:56;;;;;;;1.10;0.80;;;;;;;;;;5071509;28;20320;-56
2024/04/06 02:23:22;;;;;;;0.68;0.68;;;;;;;;;;5064788;28;20224;-54
2024/04/06 02:25:49;;;;;;;0.80;0.80;;;;;;;;;;5062078;28;20201;-55
2024/04/06 02:28:16;;;;;;;0.60;0.60;;;;;;;;;;5071721;28;20201;-56
2024/04/06 02:30:43;;;;;;;0.85;0.85;;;;;;;;;;5071361;28;20221;-53
2024/04/06 02:33:11;;;;;;;0.52;0.52;;;;;;;;;;5071535;28;20203;-53
2024/04/06 02:35:39;;;;;;;0.85;0.85;;;;;;;;;;5071313;28;20300;-56
2024/04/06 02:38:05;;;;;;;0.60;0.60;;;;;;;;;;5067212;28;20583;-55
2024/04/06 02:40:33;;;;;;;0.50;0.50;;;;;;;;;;5071056;28;20197;-55
2024/04/06 02:42:59;;;;;;;0.60;0.50;;;;;;;;;;5066868;28;20283;-55
2024/04/06 02:45:27;;;;;;;0.70;0.70;;;;;;;;;;5055407;28;20222;-54
2024/04/06 02:47:54;;;;;;;0.43;0.43;;;;;;;;;;5071050;28;20204;-55
2024/04/06 02:50:23;;;;;;;0.50;0.50;;;;;;;;;;5055971;28;20259;-53
2024/04/06 02:52:50;;;;;;;0.43;0.43;;;;;;;;;;5070170;28;20904;-50
2024/04/06 02:55:17;;;;;;;0.60;0.60;;;;;;;;;;5070659;28;20558;-54
2024/04/06 02:57:44;;;;;;;0.50;0.50;;;;;;;;;;5070563;28;20208;-56
2024/04/06 03:00:12;;;;;;;0.70;0.70;;;;;;;;;;5071293;28;20220;-56
2024/04/06 03:02:39;;;;;;;0.50;0.50;;;;;;;;;;5070884;28;20305;-52
2024/04/06 03:05:07;;;;;;;0.57;0.57;;;;;;;;;;5070952;28;20207;-56
2024/04/06 03:07:36;;;;;;;0.52;0.52;;;;;;;;;;5071107;28;20725;-54
2024/04/06 03:10:04;;;;;;;0.73;0.73;;;;;;;;;;5066762;28;20200;-55
2024/04/06 03:12:31;;;;;;;0.70;0.70;;;;;;;;;;5070710;28;20263;-56
2024/04/06 03:14:58;;;;;;;0.70;0.70;;;;;;;;;;5070846;28;20656;-55
2024/04/06 03:17:24;;;;;;;0.70;0.70;;;;;;;;;;5069789;28;20200;-55
2024/04/06 03:19:52;;;;;;;0.80;0.80;;;;;;;;;;5070106;28;20293;-56
2024/04/06 03:22:18;;;;;;;0.70;0.70;;;;;;;;;;5070744;28;20247;-51
2024/04/06 03:24:47;;;;;;;1.30;1.10;;;;;;;;;;5070586;28;20200;-51
2024/04/06 03:27:14;;;;;;;0.82;0.80;;;;;;;;;;5065320;28;20750;-51
2024/04/06 03:29:41;;;;;;;0.85;0.70;;;;;;;;;;5068150;28;20215;-55
2024/04/06 03:32:08;;;;;;;0.93;0.93;;;;;;;;;;5070704;28;20220;-57
2024/04/06 03:34:35;;;;;;;0.57;0.57;;;;;;;;;;5061517;28;20201;-56
2024/04/06 03:37:03;;;;;;;0.40;0.40;;;;;;;;;;5062956;28;20205;-55
2024/04/06 03:39:29;;;;;;;1.05;0.68;;;;;;;;;;5067208;28;20205;-54
2024/04/06 03:41:58;;;;;;;0.80;0.80;;;;;;;;;;5058603;28;20682;-54
2024/04/06 03:44:26;;;;;;;0.55;0.55;;;;;;;;;;5066025;28;20212;-52
2024/04/06 03:46:52;;;;;;;0.40;0.40;;;;;;;;;;5062205;28;20543;-52
2024/04/06 03:49:20;;;;;;;0.63;0.63;;;;;;;;;;5070251;28;20254;-55
2024/04/06 03:51:46;;;;;;;0.77;0.63;;;;;;;;;;5063999;28;20225;-54
2024/04/06 03:54:14;;;;;;;0.57;0.57;;;;;;;;;;5064724;28;20224;-54
2024/04/06 03:56:40;;;;;;;0.77;0.60;;;;;;;;;;5062043;28;20599;-56
2024/04/06 03:59:09;;;;;;;0.60;0.60;;;;;;;;;;5070402;28;20221;-57
2024/04/06 04:01:36;;;;;;;0.50;0.47;;;;;;;;;;5066059;28;20217;-56
2024/04/06 04:04:03;;;;;;;0.43;0.43;;;;;;;;;;5070085;28;20284;-57
2024/04/06 04:06:29;;;;;;;0.40;0.40;;;;;;;;;;5062558;28;20211;-56
2024/04/06 04:08:57;;;;;;;0.60;0.60;;;;;;;;;;5066044;28;20251;-57
2024/04/06 04:11:23;;;;;;;0.60;0.60;;;;;;;;;;5072674;28;20251;-55
2024/04/06 04:13:51;;;;;;;0.70;0.70;;;;;;;;;;5069521;28;20201;-55
2024/04/06 04:16:18;;;;;;;0.70;0.70;;;;;;;;;;5069483;28;20201;-56
2024/04/06 04:18:46;;;;;;;0.40;0.40;;;;;;;;;;5065488;28;20200;-57
2024/04/06 04:21:12;;;;;;;0.52;0.52;;;;;;;;;;5065331;28;20224;-50
2024/04/06 04:23:40;;;;;;;0.50;0.50;;;;;;;;;;5073482;28;20300;-53
2024/04/06 04:26:07;;;;;;;0.63;0.50;;;;;;;;;;5072692;28;20205;-54
2024/04/06 04:28:34;;;;;;;0.80;0.80;;;;;;;;;;5081944;28;20196;-52
2024/04/06 04:31:14;;;;;;;0.60;0.60;;;;;;;;;;5093604;28;20227;-57
2024/04/06 04:33:43;;;;;;;1.30;0.43;;;;;;;;;;5085442;28;20230;-51
2024/04/06 04:36:12;;;;;;;0.52;0.40;;;;;;;;;;5081376;28;20197;-51
2024/04/06 04:38:39;;;;;;;1.00;0.63;;;;;;;;;;5089446;28;20208;-51
2024/04/06 04:41:06;;;;;;;0.60;0.60;;;;;;;;;;5088892;28;20216;-57
2024/04/06 04:43:34;;;;;;;0.50;0.50;;;;;;;;;;5089968;28;20200;-56
2024/04/06 04:46:00;;;;;;;0.40;0.40;;;;;;;;;;5082070;28;20211;-57
2024/04/06 04:48:48;;;;;;;0.60;0.60;;;;;;;;;;5089433;28;20200;-56
2024/04/06 04:51:17;;;;;;;0.50;0.50;;;;;;;;;;5079857;28;20395;-57
2024/04/06 04:53:44;;;;;;;0.43;0.43;;;;;;;;;;5089975;28;20679;-56
2024/04/06 04:56:11;;;;;;;0.50;0.50;;;;;;;;;;5077192;28;20207;-54
2024/04/06 04:58:38;;;;;;;0.40;0.40;;;;;;;;;;5082015;28;20207;-57
2024/04/06 05:01:05;;;;;;;0.50;0.50;;;;;;;;;;5084301;28;20231;-55
2024/04/06 05:03:33;;;;;;;0.75;0.75;;;;;;;;;;5081593;28;20196;-57
2024/04/06 05:06:00;;;;;;;0.40;0.40;;;;;;;;;;5073069;28;20283;-56
2024/04/06 05:08:28;;;;;;;0.80;0.80;;;;;;;;;;5085498;28;20639;-55
2024/04/06 05:10:55;;;;;;;1.08;0.77;;;;;;;;;;5089335;28;20220;-53
2024/04/06 05:13:22;;;;;;;0.80;0.80;;;;;;;;;;5084805;28;20225;-56
2024/04/06 05:15:50;;;;;;;1.05;1.05;;;;;;;;;;5072549;28;20213;-57
2024/04/06 05:18:17;;;;;;;0.95;0.85;;;;;;;;;;5089786;28;20200;-57
2024/04/06 05:20:50;;;;;;;1.05;1.02;;;;;;;;;;5080363;28;20201;-55
2024/04/06 05:23:17;;;;;;;0.70;0.70;;;;;;;;;;5085255;28;20733;-54
2024/04/06 05:25:48;;;;;;;0.68;0.68;;;;;;;;;;5077746;28;20240;-57
2024/04/06 05:28:16;;;;;;;1.02;0.80;;;;;;;;;;5082485;28;20204;-55
2024/04/06 05:30:45;;;;;;;0.95;0.80;;;;;;;;;;5070905;28;20201;-57
2024/04/06 05:33:12;;;;;;;1.55;0.82;;;;;;;;;;5070010;28;20224;-56
2024/04/06 05:35:41;;;;;;;0.80;0.80;;;;;;;;;;5073540;28;20625;-55
2024/04/06 05:38:07;;;;;;;1.27;1.00;;;;;;;;;;5084671;28;20661;-56
2024/04/06 05:40:38;;;;;;;0.88;0.88;;;;;;;;;;5083987;28;20690;-55
2024/04/06 05:43:06;;;;;;;0.90;0.80;;;;;;;;;;5084005;28;20208;-54
2024/04/06 05:45:34;;;;;;;1.20;1.00;;;;;;;;;;5080910;28;20288;-52
2024/04/06 05:48:03;;;;;;;1.08;0.95;;;;;;;;;;5068216;28;20212;-54
2024/04/06 05:50:31;;;;;;;1.02;0.93;;;;;;;;;;5080037;28;20204;-53
2024/04/06 05:52:57;;;;;;;2.10;1.00;;;;;;;;;;5087387;28;20224;-52
2024/04/06 05:55:25;;;;;;;1.33;0.98;;;;;;;;;;5083768;28;20204;-52
2024/04/06 05:57:51;;;;;;;0.82;0.82;;;;;;;;;;5080893;28;20668;-51
2024/04/06 06:00:24;;;;;;;1.17;0.82;;;;;;;;;;5072345;28;20254;-51
2024/04/06 06:02:52;;;;;;;0.80;0.80;;;;;;;;;;5090632;28;20227;-54
2024/04/06 06:05:19;;;;;;;0.95;0.75;;;;;;;;;;5092062;28;20228;-52
2024/04/06 06:07:46;;;;;;;0.88;0.88;;;;;;;;;;5091873;28;20212;-50
2024/04/06 06:10:13;;;;;;;1.25;1.00;;;;;;;;;;5091799;28;20204;-55
2024/04/06 06:12:40;;;;;;;1.30;1.20;;;;;;;;;;5091299;28;20832;-50
2024/04/06 06:15:08;;;;;;;1.40;1.30;;;;;;;;;;5087633;28;20208;-51
2024/04/06 06:17:36;;;;;;;1.02;0.90;;;;;;;;;;5079995;28;20208;-53
2024/04/06 06:20:04;;;;;;;1.65;0.80;;;;;;;;;;5079588;28;20208;-50
2024/04/06 06:22:31;;;;;;;1.20;1.13;;;;;;;;;;5079997;28;20244;-51
2024/04/06 06:24:58;;;;;;;1.48;1.30;;;;;;;;;;5079467;28;20193;-50
2024/04/06 06:27:25;;;;;;;1.77;1.40;;;;;;;;;;5071926;28;20300;-51
2024/04/06 06:29:53;;;;;;;1.00;1.00;;;;;;;;;;5078948;28;20555;-54
2024/04/06 06:32:19;;;;;;;1.02;0.88;;;;;;;;;;5082774;28;20226;-53
2024/04/06 06:34:48;;;;;;;1.00;0.90;;;;;;;;;;5081291;28;20205;-50
2024/04/06 06:37:15;;;;;;;0.88;0.88;;;;;;;;;;5075455;28;20207;-55
2024/04/06 06:39:43;;;;;;;1.17;1.00;;;;;;;;;;5071026;28;20223;-55
2024/04/06 06:42:09;;;;;;;1.40;1.30;;;;;;;;;;5080451;28;20225;-55
2024/04/06 06:44:37;;;;;;;2.92;1.15;;;;;;;;;;5074803;28;20292;-52
2024/04/06 06:47:05;;;;;;;1.30;1.20;;;;;;;;;;5071567;28;20197;-50
2024/04/06 06:49:33;;;;;;;1.50;1.15;;;;;;;;;;5083964;28;20212;-51
2024/04/06 06:52:00;;;;;;;1.85;1.30;;;;;;;;;;5084042;28;20714;-50
2024/04/06 06:54:29;;;;;;;3.03;1.23;;;;;;;;;;5071036;28;20308;-50
2024/04/06 06:56:55;;;;;;;1.08;1.02;;;;;;;;;;5074170;28;20578;-50
2024/04/06 06:59:23;;;;;;;0.70;0.70;;;;;;;;;;5083829;28;20691;-50
2024/04/06 07:01:49;;;;;;;1.42;1.33;;;;;;;;;;5062753;28;20221;-50
2024/04/06 07:04:17;;;;;;;1.33;1.05;;;;;;;;;;5071110;28;20208;-52
2024/04/06 07:06:43;;;;;;;0.90;0.90;;;;;;;;;;5089175;28;20686;-53
2024/04/06 07:09:12;;;;;;;2.33;1.55;;;;;;;;;;5073352;28;20206;-52
2024/04/06 07:11:38;;;;;;;1.10;0.82;;;;;;;;;;5074551;28;20229;-51
2024/04/06 07:14:11;;;;;;;1.10;1.00;;;;;;;;;;5073969;28;20220;-54
2024/04/06 07:16:37;;;;;;;1.05;0.95;;;;;;;;;;5071376;28;20258;-51
2024/04/06 07:19:06;;;;;;;1.30;1.20;;;;;;;;;;5078015;28;20291;-53
2024/04/06 07:21:32;;;;;;;1.85;1.10;;;;;;;;;;5075609;28;20224;-52
2024/04/06 07:24:00;;;;;;;0.88;0.88;;;;;;;;;;5079659;28;20205;-53
2024/04/06 07:26:28;;;;;;;1.05;1.00;;;;;;;;;;5079778;28;20207;-57
2024/04/06 07:28:56;;;;;;;1.10;1.00;;;;;;;;;;5090139;28;20203;-51
2024/04/06 07:31:23;;;;;;;1.23;1.13;;;;;;;;;;5080185;28;20588;-52
2024/04/06 07:33:52;;;;;;;1.42;1.05;;;;;;;;;;5078954;28;20224;-56
2024/04/06 07:36:18;;;;;;;1.05;1.00;;;;;;;;;;5086451;28;20283;-52
2024/04/06 07:38:46;;;;;;;1.30;1.20;;;;;;;;;;5086288;28;20570;-55
2024/04/06 07:41:12;;;;;;;2.10;1.90;;;;;;;;;;5081281;28;20228;-55
2024/04/06 07:43:41;;;;;;;1.20;1.10;;;;;;;;;;5082489;28;20723;-55
2024/04/06 07:46:07;;;;;;;1.92;1.35;;;;;;;;;;5087389;28;20671;-55
2024/04/06 07:48:35;;;;;;;1.38;1.10;;;;;;;;;;5085069;28;20205;-54
2024/04/06 07:51:01;;;;;;;0.90;0.90;;;;;;;;;;5078999;28;20234;-55
2024/04/06 07:53:29;;;;;;;1.92;1.08;;;;;;;;;;5085805;28;20312;-53
2024/04/06 07:55:55;;;;;;;2.55;1.48;;;;;;;;;;5090081;28;21693;-52
2024/04/06 07:58:23;;;;;;;2.17;1.45;;;;;;;;;;5086359;28;20208;-53
2024/04/06 08:00:51;;;;;;;1.17;1.08;;;;;;;;;;5082533;28;20227;-55
2024/04/06 08:03:18;;;;;;;1.50;1.23;;;;;;;;;;5089327;28;20682;-51
2024/04/06 08:05:50;;;;;;;1.20;1.10;;;;;;;;;;5089445;28;20208;-55
2024/04/06 08:08:18;;;;;;;2.88;1.38;;;;;;;;;;5088744;28;20294;-53
2024/04/06 08:10:44;;;;;;;1.75;1.65;;;;;;;;;;5083506;28;20208;-51
2024/04/06 08:13:13;;;;;;;1.45;1.20;;;;;;;;;;5088987;28;20207;-53
2024/04/06 08:15:40;;;;;;;2.05;1.67;;;;;;;;;;5090516;28;20249;-56
2024/04/06 08:18:09;;;;;;;1.60;1.50;;;;;;;;;;5089147;28;20208;-56
2024/04/06 08:20:35;;;;;;;1.40;1.30;;;;;;;;;;5089493;28;20659;-56
2024/04/06 08:23:03;;;;;;;2.10;1.60;;;;;;;;;;5081960;28;20210;-56
2024/04/06 08:25:29;;;;;;;1.45;1.20;;;;;;;;;;5084701;28;20207;-56
2024/04/06 08:27:57;;;;;;;2.70;1.40;;;;;;;;;;5083158;28;20254;-54
2024/04/06 08:30:23;;;;;;;5.55;1.88;;;;;;;;;;5084795;28;20196;-57
2024/04/06 08:32:57;;;;;;;1.45;1.33;;;;;;;;;;5093503;28;20270;-54
2024/04/06 08:35:25;;;;;;;1.38;1.27;;;;;;;;;;5080364;28;20331;-54
2024/04/06 08:37:53;;;;;;;1.40;1.30;;;;;;;;;;5085621;28;20204;-52
2024/04/06 08:40:19;;;;;;;1.63;1.52;;;;;;;;;;5088810;28;20200;-57
2024/04/06 08:42:47;;;;;;;1.20;1.10;;;;;;;;;;5084854;28;20742;-57
2024/04/06 08:45:14;;;;;;;2.00;1.40;;;;;;;;;;5083416;28;20196;-55
2024/04/06 08:47:42;;;;;;;1.95;1.38;;;;;;;;;;5085148;28;20208;-58
2024/04/06 08:50:10;;;;;;;3.17;1.83;;;;;;;;;;5085044;28;20227;-57
2024/04/06 08:52:40;;;;;;;1.33;1.23;;;;;;;;;;5076078;28;20308;-59
2024/04/06 08:55:08;;;;;;;3.00;1.50;;;;;;;;;;5092525;28;20223;-54
2024/04/06 08:57:38;;;;;;;1.63;1.52;;;;;;;;;;5079790;28;20288;-57
2024/04/06 09:00:07;;;;;;;1.25;1.15;;;;;;;;;;5077334;28;20200;-57
2024/04/06 09:02:35;;;;;;;1.33;1.23;;;;;;;;;;5087654;28;20216;-55
2024/04/06 09:05:01;;;;;;;2.35;1.70;;;;;;;;;;5089454;28;20192;-57
2024/04/06 09:07:29;;;;;;;1.77;1.30;;;;;;;;;;5084449;28;20204;-57
2024/04/06 09:09:57;;;;;;;5.68;1.73;;;;;;;;;;5087018;28;20196;-54
2024/04/06 09:12:24;;;;;;;3.33;1.30;;;;;;;;;;5084752;28;20233;-56
2024/04/06 09:14:51;;;;;;;1.70;1.40;;;;;;;;;;5080768;28;20220;-56
2024/04/06 09:17:21;;;;;;;1.27;1.20;;;;;;;;;;5085860;28;20236;-57
2024/04/06 09:19:48;;;;;;;3.58;1.65;;;;;;;;;;5086139;28;20197;-58
2024/04/06 09:22:15;;;;;;;1.90;1.77;;;;;;;;;;5087920;28;20334;-54
2024/04/06 09:24:42;;;;;;;2.17;1.30;;;;;;;;;;5087859;28;20650;-55
2024/04/06 09:27:12;;;;;;;1.52;1.42;;;;;;;;;;5078615;28;20628;-55
2024/04/06 09:29:46;;;;;;;1.35;1.25;;;;;;;;;;5089526;28;20204;-54
2024/04/06 09:32:15;;;;;;;1.50;1.45;;;;;;;;;;5079566;28;20307;-56
2024/04/06 09:34:49;;;;;;;1.40;1.30;;;;;;;;;;5079387;28;20216;-57
2024/04/06 09:37:22;;;;;;;1.67;1.58;;;;;;;;;;5084433;28;20547;-53
2024/04/06 09:39:49;;;;;;;1.10;1.10;;;;;;;;;;5089290;28;20287;-54
2024/04/06 09:42:18;;;;;;;1.33;1.23;;;;;;;;;;5091012;28;20233;-51
2024/04/06 09:44:45;;;;;;;1.88;1.42;;;;;;;;;;5092433;28;20279;-52
2024/04/06 09:47:13;;;;;;;1.98;1.55;;;;;;;;;;5091240;28;20207;-56
2024/04/06 09:49:40;;;;;;;3.20;1.48;;;;;;;;;;5092093;28;20289;-54
2024/04/06 09:52:07;;;;;;;1.70;1.40;;;;;;;;;;5091758;28;20215;-55
2024/04/06 09:54:33;;;;;;;1.20;1.10;;;;;;;;;;5091801;28;20309;-56
2024/04/06 09:57:02;;;;;;;1.40;1.30;;;;;;;;;;5087200;28;20242;-54
2024/04/06 09:59:29;;;;;;;3.35;1.30;;;;;;;;;;5092364;28;20699;-55
2024/04/06 10:01:58;;;;;;;1.55;1.23;;;;;;;;;;5091636;28;20311;-57
2024/04/06 10:04:26;;;;;;;1.58;1.20;;;;;;;;;;5091743;28;20200;-55
2024/04/06 10:06:57;;;;;;;1.30;1.13;;;;;;;;;;5091904;28;20228;-56
2024/04/06 10:09:30;;;;;;;1.55;1.30;;;;;;;;;;5091491;28;20211;-57
2024/04/06 10:12:01;;;;;;;1.38;1.27;;;;;;;;;;5091531;28;20228;-55
2024/04/06 10:14:29;;;;;;;1.35;1.25;;;;;;;;;;5055796;28;20570;-55
2024/04/06 10:17:07;;;;;;;2.60;1.20;;;;;;;;;;5072298;28;20617;-55
2024/04/06 10:19:34;;;;;;;1.20;1.10;;;;;;;;;;5071842;28;20195;-56
2024/04/06 10:22:05;;;;;;;1.63;1.50;;;;;;;;;;5071467;28;20221;-53
2024/04/06 10:24:34;;;;;;;1.33;1.23;;;;;;;;;;5071625;28;20227;-55
2024/04/06 10:27:01;;;;;;;1.40;1.30;;;;;;;;;;5070208;28;20197;-52
2024/04/06 10:29:31;;;;;;;1.20;1.10;;;;;;;;;;5067927;28;20205;-56
2024/04/06 10:31:58;;;;;;;1.80;1.30;;;;;;;;;;5062772;28;20220;-55
2024/04/06 10:34:26;;;;;;;1.60;1.50;;;;;;;;;;5069472;28;20220;-56
2024/04/06 10:36:53;;;;;;;1.30;1.20;;;;;;;;;;5083062;28;20234;-57
2024/04/06 10:39:20;;;;;;;1.52;1.15;;;;;;;;;;5078805;28;20205;-58
2024/04/06 10:41:47;;;;;;;1.27;1.17;;;;;;;;;;5084624;28;20220;-58
2024/04/06 10:44:14;;;;;;;1.38;1.05;;;;;;;;;;5084421;28;20246;-58
2024/04/06 10:46:43;;;;;;;1.17;1.08;;;;;;;;;;5085089;28;20200;-58
2024/04/06 10:49:10;;;;;;;1.10;1.10;;;;;;;;;;5080302;28;20209;-55
2024/04/06 10:51:38;;;;;;;1.80;1.00;;;;;;;;;;5083251;28;20220;-58
2024/04/06 10:54:05;;;;;;;1.38;1.27;;;;;;;;;;5088261;28;20693;-57
2024/04/06 10:56:33;;;;;;;1.40;1.30;;;;;;;;;;5080332;28;20268;-58
2024/04/06 10:59:01;;;;;;;1.80;1.30;;;;;;;;;;5084476;28;20648;-58
2024/04/06 11:01:28;;;;;;;1.15;1.15;;;;;;;;;;5088301;28;20228;-52
2024/04/06 11:03:56;;;;;;;1.30;1.20;;;;;;;;;;5082552;28;20634;-53
2024/04/06 11:06:24;;;;;;;2.28;1.40;;;;;;;;;;5081646;28;20255;-56
2024/04/06 11:08:51;;;;;;;1.00;1.00;;;;;;;;;;5087569;28;20196;-57
2024/04/06 11:11:19;;;;;;;1.45;1.00;;;;;;;;;;5086794;28;20674;-57
2024/04/06 11:13:46;;;;;;;1.40;1.25;;;;;;;;;;5086966;28;20257;-57
2024/04/06 11:16:14;;;;;;;1.10;1.00;;;;;;;;;;5082229;28;20231;-57
2024/04/06 11:18:41;;;;;;;1.65;1.55;;;;;;;;;;5087871;28;20669;-56
2024/04/06 11:21:15;;;;;;;1.20;1.08;;;;;;;;;;5089038;28;20638;-55
2024/04/06 11:23:43;;;;;;;1.00;1.00;;;;;;;;;;5089126;28;20212;-59
2024/04/06 11:26:11;;;;;;;1.55;1.45;;;;;;;;;;5092474;28;20196;-58
2024/04/06 11:28:38;;;;;;;1.00;1.00;;;;;;;;;;5088988;28;20200;-58
2024/04/06 11:31:05;;;;;;;0.70;0.70;;;;;;;;;;5088765;28;20753;-59
2024/04/06 11:33:32;;;;;;;1.23;1.13;;;;;;;;;;5088840;28;20201;-58
2024/04/06 11:35:59;;;;;;;1.52;1.00;;;;;;;;;;5088868;28;20231;-54
2024/04/06 11:38:28;;;;;;;1.00;1.00;;;;;;;;;;5092121;28;20200;-56
2024/04/06 11:40:57;;;;;;;1.27;1.17;;;;;;;;;;5089851;28;20227;-59
2024/04/06 11:43:24;;;;;;;1.30;1.20;;;;;;;;;;5080362;28;20677;-57
2024/04/06 11:45:51;;;;;;;7.60;1.83;;;;;;;;;;5074765;28;20239;-56
2024/04/06 11:48:18;;;;;;;1.27;0.80;;;;;;;;;;5079596;28;20587;-59
2024/04/06 11:50:46;;;;;;;1.30;1.20;;;;;;;;;;5087634;28;20212;-59
2024/04/06 11:53:14;;;;;;;1.63;1.52;;;;;;;;;;5086210;28;20204;-57
2024/04/06 11:55:43;;;;;;;1.45;1.20;;;;;;;;;;5088822;28;20220;-56
2024/04/06 11:58:09;;;;;;;1.20;1.10;;;;;;;;;;5085072;28;20197;-57
2024/04/06 12:00:37;;;;;;;1.02;1.02;;;;;;;;;;5082830;28;20291;-55
2024/04/06 12:03:04;;;;;;;1.20;1.10;;;;;;;;;;5094472;28;20204;-56
2024/04/06 12:05:32;;;;;;;1.10;1.00;;;;;;;;;;5088219;28;20197;-55
2024/04/06 12:07:58;;;;;;;1.25;1.10;;;;;;;;;;5089076;28;20666;-58
2024/04/06 12:10:26;;;;;;;2.92;1.50;;;;;;;;;;5087921;28;20208;-58
2024/04/06 12:12:54;;;;;;;1.42;1.10;;;;;;;;;;5094452;28;20208;-57
2024/04/06 12:15:23;;;;;;;1.27;1.13;;;;;;;;;;5088044;28;20225;-58
2024/04/06 12:17:49;;;;;;;1.27;1.10;;;;;;;;;;5091268;28;20216;-57
2024/04/06 12:20:16;;;;;;;0.85;0.80;;;;;;;;;;5091112;28;20219;-56
2024/04/06 12:22:43;;;;;;;1.42;1.30;;;;;;;;;;5090855;28;20733;-56
2024/04/06 12:25:11;;;;;;;1.25;1.15;;;;;;;;;;5090875;28;20196;-57
2024/04/06 12:27:37;;;;;;;1.45;1.35;;;;;;;;;;5086644;28;20200;-54
2024/04/06 12:30:12;;;;;;;0.90;0.90;;;;;;;;;;5084705;28;20582;-57
2024/04/06 12:32:39;;;;;;;1.02;0.93;;;;;;;;;;5086810;28;20268;-57
2024/04/06 12:35:07;;;;;;;0.80;0.80;;;;;;;;;;5084869;28;20671;-56
2024/04/06 12:37:33;;;;;;;1.00;1.00;;;;;;;;;;5093961;28;20212;-56
2024/04/06 12:40:01;;;;;;;1.00;1.00;;;;;;;;;;5088284;28;20656;-56
2024/04/06 12:42:27;;;;;;;1.02;1.00;;;;;;;;;;5079486;28;20224;-57
2024/04/06 12:44:55;;;;;;;1.10;1.00;;;;;;;;;;5093616;28;20229;-55
2024/04/06 12:47:22;;;;;;;1.13;1.08;;;;;;;;;;5085076;28;20192;-56
2024/04/06 12:49:50;;;;;;;1.20;1.10;;;;;;;;;;5090364;28;20294;-58
2024/04/06 12:52:16;;;;;;;1.35;1.25;;;;;;;;;;5084528;28;20296;-56
2024/04/06 12:54:44;;;;;;;3.75;1.27;;;;;;;;;;5089830;28;20586;-55
2024/04/06 12:59:56;;;;;;;1.20;1.10;;;;;;;;;;5085741;28;20211;-54
2024/04/06 13:02:24;;;;;;;1.08;1.08;;;;;;;;;;5086593;28;20547;-55
2024/04/06 13:04:52;;;;;;;1.08;1.08;;;;;;;;;;5088943;28;20622;-55
2024/04/06 13:07:18;;;;;;;2.15;1.10;;;;;;;;;;5085881;28;20578;-56
2024/04/06 13:09:53;;;;;;;1.98;1.20;;;;;;;;;;5086741;28;20200;-55
2024/04/06 13:12:23;;;;;;;1.02;0.98;;;;;;;;;;5086548;28;20228;-55
2024/04/06 13:14:51;;;;;;;1.00;1.00;;;;;;;;;;5087453;28;20205;-53
2024/04/06 13:17:18;;;;;;;1.00;1.00;;;;;;;;;;5090279;28;20641;-52
2024/04/06 13:19:46;;;;;;;1.13;1.13;;;;;;;;;;5086885;28;20200;-56
2024/04/06 13:22:13;;;;;;;1.95;0.80;;;;;;;;;;5087624;28;20232;-54
2024/04/06 13:24:40;;;;;;;2.35;1.10;;;;;;;;;;5089770;28;20196;-56
2024/04/06 13:27:08;;;;;;;1.10;1.10;;;;;;;;;;5080016;28;20196;-55
2024/04/06 13:29:35;;;;;;;1.55;1.17;;;;;;;;;;5087113;28;20230;-55
2024/04/06 13:32:04;;;;;;;0.70;0.70;;;;;;;;;;5084119;28;20215;-55
2024/04/06 13:34:33;;;;;;;2.25;1.20;;;;;;;;;;5079606;28;20200;-52
2024/04/06 13:37:01;;;;;;;1.10;1.00;;;;;;;;;;5084772;28;20231;-57
2024/04/06 13:39:28;;;;;;;1.65;1.55;;;;;;;;;;5084260;28;20616;-56
2024/04/06 13:41:55;;;;;;;1.38;0.90;;;;;;;;;;5084786;28;20216;-56
2024/04/06 13:44:22;;;;;;;1.10;1.00;;;;;;;;;;5088482;28;20673;-55
2024/04/06 13:46:49;;;;;;;1.02;0.93;;;;;;;;;;5091393;28;20222;-54
2024/04/06 13:49:16;;;;;;;1.45;1.33;;;;;;;;;;5084747;28;20223;-57
2024/04/06 13:51:42;;;;;;;1.05;1.05;;;;;;;;;;5086453;28;20235;-56
2024/04/06 13:54:11;;;;;;;1.42;0.95;;;;;;;;;;5083902;28;20216;-56
2024/04/06 13:56:39;;;;;;;1.27;0.80;;;;;;;;;;5082993;28;20216;-52
2024/04/06 13:59:07;;;;;;;1.25;1.20;;;;;;;;;;5086270;28;20232;-56
2024/04/06 14:01:34;;;;;;;0.90;0.90;;;;;;;;;;5086720;28;20238;-56
2024/04/06 14:04:01;;;;;;;1.13;1.00;;;;;;;;;;5083559;28;20232;-55
2024/04/06 14:06:28;;;;;;;1.92;1.27;;;;;;;;;;5078240;28;20204;-55
2024/04/06 14:08:56;;;;;;;0.80;0.80;;;;;;;;;;5084846;28;20582;-55
2024/04/06 14:11:32;;;;;;;1.25;1.08;;;;;;;;;;5085468;28;20285;-56
2024/04/06 14:14:01;;;;;;;2.17;0.80;;;;;;;;;;5086996;28;20693;-55
2024/04/06 14:16:29;;;;;;;1.63;1.27;;;;;;;;;;5083497;28;20224;-55
2024/04/06 14:18:56;;;;;;;1.35;1.02;;;;;;;;;;5087419;28;20258;-55
2024/04/06 14:21:24;;;;;;;1.50;1.40;;;;;;;;;;5088246;28;20247;-55
2024/04/06 14:23:51;;;;;;;1.70;1.20;;;;;;;;;;5087833;28;20196;-57
2024/04/06 14:26:18;;;;;;;1.27;1.17;;;;;;;;;;5084214;28;20578;-55
2024/04/06 14:28:47;;;;;;;2.47;1.63;;;;;;;;;;5085190;28;20207;-51
2024/04/06 14:31:13;;;;;;;6.80;4.03;;;;;;;;;;5084125;28;20568;-55
2024/04/06 14:33:41;;;;;;;3.10;2.10;;;;;;;;;;5085784;28;20200;-52
2024/04/06 14:36:08;;;;;;;1.15;1.05;;;;;;;;;;5084762;28;20201;-55
2024/04/06 14:38:36;;;;;;;1.80;1.30;;;;;;;;;;5085122;28;20209;-56
2024/04/06 14:41:02;;;;;;;0.88;0.88;;;;;;;;;;5085479;28;20707;-56
2024/04/06 14:43:30;;;;;;;1.27;1.05;;;;;;;;;;5085773;28;20239;-56
2024/04/06 14:45:58;;;;;;;1.27;1.17;;;;;;;;;;5084427;28;20209;-56
2024/04/06 14:48:25;;;;;;;1.42;1.33;;;;;;;;;;5082636;28;20231;-56